createdAt,value
2022-10-04T00:04:48.396Z,99025.1
2022-10-04T00:10:55.033Z,99021
2022-10-04T00:16:58.692Z,99024
2022-10-04T00:22:36.554Z,99021.5
2022-10-04T00:28:56.203Z,99017.4
2022-10-04T00:34:36.906Z,99017.2
2022-10-04T00:40:12.110Z,99012.4
2022-10-04T00:45:47.569Z,99013.5
2022-10-04T00:51:23.059Z,99009.7
2022-10-04T00:56:57.877Z,99005.5
2022-10-04T01:02:49.067Z,99005.7
2022-10-04T01:08:47.684Z,99013.4
2022-10-04T01:14:22.719Z,99019.8
2022-10-04T01:20:16.587Z,99019.7
2022-10-04T01:25:57.700Z,99021.7
2022-10-04T01:31:54.262Z,99024.7
2022-10-04T01:37:29.933Z,99031.3
2022-10-04T01:43:38.038Z,99024.7
2022-10-04T01:49:20.143Z,99022.5
2022-10-04T01:54:54.892Z,99016.7
2022-10-04T02:00:38.676Z,99013.6
2022-10-04T02:06:14.309Z,99016.8
2022-10-04T02:11:55.789Z,99005.6
2022-10-04T02:17:34.908Z,99004.6
2022-10-04T02:23:10.010Z,98998.1
2022-10-04T02:28:45.534Z,98996.3
2022-10-04T02:34:39.729Z,98992.3
2022-10-04T02:40:16.144Z,98991.2
2022-10-04T02:45:54.728Z,98988.6
2022-10-04T02:51:29.651Z,98983.7
2022-10-04T02:57:12.329Z,98984
2022-10-04T03:03:03.874Z,98981.6
2022-10-04T03:08:41.580Z,98983.3
2022-10-04T03:14:26.853Z,98987.8
2022-10-04T03:20:17.188Z,98984.3
2022-10-04T03:26:12.897Z,98980
2022-10-04T03:31:48.152Z,98967.7
2022-10-04T03:37:24.117Z,98965.6
2022-10-04T03:43:21.804Z,98958.8
2022-10-04T03:48:56.664Z,98963.8
2022-10-04T03:54:31.506Z,98962.8
2022-10-04T04:00:10.635Z,98964
2022-10-04T04:06:08.865Z,98964.8
2022-10-04T04:11:51.457Z,98969.3
2022-10-04T04:17:55.392Z,98975.6
2022-10-04T04:23:32.853Z,98982.2
2022-10-04T04:29:08.105Z,98983.9
2022-10-04T04:34:42.988Z,98988.8
2022-10-04T04:40:20.489Z,98991.4
2022-10-04T04:46:28.661Z,98996
2022-10-04T04:52:05.629Z,98997.7
2022-10-04T04:57:40.534Z,98994.2
2022-10-04T05:03:15.701Z,98990.3
2022-10-04T05:08:50.410Z,98989.1
2022-10-04T05:14:25.354Z,98993.3
2022-10-04T05:20:08.893Z,98984.5
2022-10-04T05:25:44.824Z,98986.4
2022-10-04T05:31:42.132Z,98987.9
2022-10-04T05:37:20.084Z,98988.3
2022-10-04T05:43:04.247Z,98983.9
2022-10-04T05:48:39.217Z,98988.8
2022-10-04T05:54:14.142Z,98991.4
2022-10-04T05:59:48.934Z,98992.3
2022-10-04T06:05:29.689Z,98991.5
2022-10-04T06:11:08.317Z,98998.4
2022-10-04T06:16:43.775Z,98998.2
2022-10-04T06:22:19.388Z,99003
2022-10-04T06:27:54.668Z,99008.8
2022-10-04T06:33:31.155Z,99010.5
2022-10-04T06:39:06.269Z,99012.9
2022-10-04T06:44:47.188Z,99016.9
2022-10-04T06:50:22.167Z,99012
2022-10-04T06:55:57.004Z,99015.1
2022-10-04T07:01:32.724Z,99023
2022-10-04T07:07:10.002Z,99030
2022-10-04T07:12:44.903Z,99035.2
2022-10-04T07:18:19.778Z,99042.4
2022-10-04T07:23:55.045Z,99047.6
2022-10-04T07:29:30.392Z,99047.8
2022-10-04T07:35:05.119Z,99052.5
2022-10-04T07:40:48.478Z,99058.5
2022-10-04T07:46:23.802Z,99065
2022-10-04T07:52:07.619Z,99065.8
2022-10-04T07:57:43.031Z,99070.6
2022-10-04T08:03:18.522Z,99069.5
2022-10-04T08:08:53.944Z,99072.2
2022-10-04T08:14:34.815Z,99072.9
2022-10-04T08:20:34.425Z,99076.6
2022-10-04T08:26:09.690Z,99083.4
2022-10-04T08:31:45.192Z,99086.9
2022-10-04T08:37:20.206Z,99094.2
2022-10-04T08:42:57.551Z,99091
2022-10-04T08:48:33.009Z,99092.7
2022-10-04T08:54:08.486Z,99092.2
2022-10-04T08:59:43.505Z,99096.4
2022-10-04T09:05:25.988Z,99090.8
2022-10-04T09:11:27.545Z,99100.8
2022-10-04T09:17:02.685Z,99105.6
2022-10-04T09:22:38.031Z,99116.8
2022-10-04T09:29:46.146Z,99122.8
2022-10-04T09:35:26.012Z,99131
2022-10-04T09:41:06.598Z,99133.4
2022-10-04T09:46:44.575Z,99140.1
2022-10-04T09:52:40.018Z,99134.1
2022-10-04T09:58:25.089Z,99131.3
2022-10-04T10:04:01.002Z,99128.8
2022-10-04T10:09:41.981Z,99129.9
2022-10-04T10:15:34.283Z,99125.2
2022-10-04T10:21:28.876Z,99122.7
2022-10-04T10:27:11.873Z,99124.9
2022-10-04T10:32:46.765Z,99129.1
2022-10-04T10:38:24.715Z,99132.2
2022-10-04T10:44:07.494Z,99132.1
2022-10-04T10:50:03.906Z,99133.3
2022-10-04T10:56:00.394Z,99123.1
2022-10-04T11:01:36.007Z,99116.9
2022-10-04T11:07:12.310Z,99122.2
2022-10-04T11:12:49.644Z,99123.2
2022-10-04T11:18:25.493Z,99114.7
2022-10-04T11:24:21.516Z,99109.6
2022-10-04T11:29:57.714Z,99103
2022-10-04T11:35:32.687Z,99097.2
2022-10-04T11:41:11.613Z,99090.4
2022-10-04T11:47:00.478Z,99089.2
2022-10-04T11:53:02.962Z,99084.8
2022-10-04T11:58:56.232Z,99081
2022-10-04T12:04:41.577Z,99072.6
2022-10-04T12:10:17.100Z,99063.9
2022-10-04T12:15:52.841Z,99069.8
2022-10-04T12:21:28.426Z,99067.9
2022-10-04T12:27:27.279Z,99068.2
2022-10-04T12:33:02.195Z,99060.5
2022-10-04T12:38:37.001Z,99056.2
2022-10-04T12:44:23.150Z,99052.2
2022-10-04T12:50:10.239Z,99035.6
2022-10-04T12:55:45.640Z,99035.9
2022-10-04T13:01:28.780Z,99023.9
2022-10-04T13:07:23.554Z,99020.3
2022-10-04T13:14:01.802Z,99016.9
2022-10-04T13:19:37.787Z,99006.7
2022-10-04T13:25:17.085Z,99003.7
2022-10-04T13:30:52.376Z,98991.8
2022-10-04T13:36:27.295Z,98993.3
2022-10-04T13:42:49.666Z,98982.6
2022-10-04T13:48:29.280Z,98977.9
2022-10-04T13:54:14.241Z,98977.4
2022-10-04T13:59:54.216Z,98982.4
2022-10-04T14:05:29.211Z,98987.1
2022-10-04T14:11:26.044Z,98986.6
2022-10-04T14:17:01.150Z,98988.1
2022-10-04T14:22:36.293Z,98987.3
2022-10-04T14:28:33.347Z,98989.7
2022-10-04T14:34:12.177Z,98981.6
2022-10-04T14:39:52.703Z,98980.7
2022-10-04T14:45:38.926Z,98981.8
2022-10-04T14:51:17.144Z,98980.6
2022-10-04T14:56:56.573Z,98986.9
2022-10-04T15:02:32.894Z,98989.9
2022-10-04T15:08:14.610Z,98988.6
2022-10-04T15:14:13.777Z,98991
2022-10-04T15:19:47.681Z,98994.1
2022-10-04T15:25:37.871Z,98996.4
2022-10-04T15:31:40.505Z,98999
2022-10-04T15:37:35.221Z,99004.5
2022-10-04T15:44:01.439Z,99007.7
2022-10-04T15:50:15.794Z,99013
2022-10-04T15:56:05.483Z,99011.2
2022-10-04T16:01:50.857Z,99010.3
2022-10-04T16:07:40.662Z,99018.5
2022-10-04T16:13:57.760Z,99021.9
2022-10-04T16:19:36.117Z,99027.1
2022-10-04T16:25:15.552Z,99025.6
2022-10-04T16:30:54.751Z,99030.6
2022-10-04T16:36:34.503Z,99030.6
2022-10-04T16:42:17.334Z,99040.5
2022-10-04T16:47:55.512Z,99049.8
2022-10-04T16:53:38.717Z,99056.2
2022-10-04T16:59:39.659Z,99057.8
2022-10-04T17:05:20.969Z,99059.1
2022-10-04T17:11:22.318Z,99060.5
2022-10-04T17:17:00.697Z,99059.6
2022-10-04T17:22:40.766Z,99060.4
2022-10-04T17:28:19.966Z,99066
2022-10-04T17:33:59.696Z,99062.2
2022-10-04T17:39:39.762Z,99068.2
2022-10-04T17:45:19.051Z,99068
2022-10-04T17:50:57.743Z,99069.1
2022-10-04T17:56:37.220Z,99075.9
2022-10-04T18:02:18.985Z,99076.2
2022-10-04T18:07:59.205Z,99081.8
2022-10-04T18:14:00.498Z,99092.5
2022-10-04T18:19:38.464Z,99094.8
2022-10-04T18:25:15.685Z,99097.7
2022-10-04T18:31:10.368Z,99106.2
2022-10-04T18:36:48.563Z,99109.3
2022-10-04T18:42:32.640Z,99115.2
2022-10-04T18:48:27.280Z,99123.3
2022-10-04T18:54:06.355Z,99127.7
2022-10-04T18:59:44.266Z,99128.4
2022-10-04T19:05:39.743Z,99137
2022-10-04T19:11:19.131Z,99138.3
2022-10-04T19:16:54.212Z,99145.4
2022-10-04T19:23:09.448Z,99150.7
2022-10-04T19:28:44.574Z,99160.9
2022-10-04T19:34:28.522Z,99164.3
2022-10-04T19:40:03.423Z,99164.7
2022-10-04T19:46:19.828Z,99161.7
2022-10-04T19:52:00.960Z,99166
2022-10-04T19:57:39.012Z,99167.3
2022-10-04T20:03:16.956Z,99170.2
2022-10-04T20:09:03.467Z,99178.7
2022-10-04T20:14:46.394Z,99178.2
2022-10-04T20:20:26.188Z,99174.7
2022-10-04T20:26:04.462Z,99173.5
2022-10-04T20:32:00.711Z,99174.9
2022-10-04T20:37:37.071Z,99175.9
2022-10-04T20:43:20.447Z,99176.5
2022-10-04T20:49:06.498Z,99176.6
2022-10-04T20:54:44.410Z,99180.8
2022-10-04T21:00:28.809Z,99180.6
2022-10-04T21:06:12.549Z,99188.5
2022-10-04T21:11:53.040Z,99192.5
2022-10-04T21:17:32.122Z,99191.3
2022-10-04T21:23:07.020Z,99187.1
2022-10-04T21:28:42.193Z,99180.6
2022-10-04T21:34:54.527Z,99179.4
2022-10-04T21:40:34.264Z,99180
2022-10-04T21:46:20.953Z,99175.4
2022-10-04T21:51:56.590Z,99170.2
2022-10-04T21:57:39.317Z,99169.4
2022-10-04T22:03:14.318Z,99173.6
2022-10-04T22:09:23.401Z,99167
2022-10-04T22:14:58.070Z,99160.9
2022-10-04T22:20:41.849Z,99156.7
2022-10-04T22:26:35.659Z,99142
2022-10-04T22:32:24.643Z,99139
2022-10-04T22:38:12.632Z,99137.7
2022-10-04T22:44:08.392Z,99135.3
2022-10-04T22:49:49.758Z,99128.4
2022-10-04T22:55:46.738Z,99114.5
2022-10-04T23:01:26.936Z,99107.8
2022-10-04T23:07:04.446Z,99101.2
2022-10-04T23:13:03.319Z,99096.5
2022-10-04T23:18:37.075Z,99093.5
2022-10-04T23:24:17.793Z,99093.7
2022-10-04T23:30:01.022Z,99085.1
2022-10-04T23:35:36.378Z,99082.4
2022-10-04T23:43:08.618Z,99073.2
2022-10-04T23:48:43.798Z,99063.7
2022-10-04T23:54:21.684Z,99057
2022-10-04T23:59:57.751Z,99060.5
